createdAt,value
2023-02-26T00:01:33.109Z,25.08
2023-02-26T00:04:02.893Z,20.75
2023-02-26T00:06:32.700Z,21.83
2023-02-26T00:09:00.822Z,23.25
2023-02-26T00:11:29.641Z,23.75
2023-02-26T00:13:58.239Z,25.02
2023-02-26T00:16:34.452Z,25.42
2023-02-26T00:19:06.959Z,26.13
2023-02-26T00:21:36.095Z,21.70
2023-02-26T00:24:06.972Z,21.73
2023-02-26T00:26:35.168Z,21.90
2023-02-26T00:29:04.148Z,19.88
2023-02-26T00:31:32.397Z,18.60
2023-02-26T00:34:01.280Z,19.85
2023-02-26T00:36:57.416Z,19.95
2023-02-26T00:39:39.836Z,20.60
2023-02-26T00:42:08.818Z,19.10
2023-02-26T00:44:37.256Z,18.75
2023-02-26T00:47:49.513Z,15.70
2023-02-26T00:50:22.421Z,15.57
2023-02-26T00:55:21.916Z,13.35
2023-02-26T00:57:49.948Z,11.57
2023-02-26T01:00:18.701Z,15.48
2023-02-26T01:02:47.950Z,13.90
2023-02-26T01:05:16.740Z,14.07
2023-02-26T01:08:03.570Z,21.35
2023-02-26T01:10:31.914Z,25.55
2023-02-26T01:13:00.234Z,28.15
2023-02-26T01:15:28.804Z,32.15
2023-02-26T01:18:09.832Z,30.23
2023-02-26T01:20:46.735Z,35.03
2023-02-26T01:23:24.201Z,25.30
2023-02-26T01:26:04.876Z,22.13
2023-02-26T01:28:33.613Z,30.40
2023-02-26T01:31:05.844Z,31.15
2023-02-26T01:33:47.642Z,38.13
2023-02-26T01:36:19.146Z,25.83
2023-02-26T01:38:53.550Z,24.40
2023-02-26T01:41:41.099Z,28.88
2023-02-26T01:44:20.048Z,22.52
2023-02-26T01:47:09.534Z,21.38
2023-02-26T01:49:38.235Z,23.02
2023-02-26T01:52:35.675Z,15.73
2023-02-26T01:55:06.342Z,7.65
2023-02-26T01:57:34.620Z,8.43
2023-02-26T02:00:04.613Z,10.65
2023-02-26T02:02:40.270Z,7.35
2023-02-26T02:05:38.329Z,13.48
2023-02-26T02:08:06.675Z,7.05
2023-02-26T02:10:35.070Z,10.30
2023-02-26T02:13:17.843Z,10.82
2023-02-26T02:16:08.531Z,12.73
2023-02-26T02:18:42.130Z,14.43
2023-02-26T02:21:29.564Z,13.35
2023-02-26T02:24:03.787Z,13.25
2023-02-26T02:26:54.123Z,13.60
2023-02-26T02:29:46.451Z,16.42
2023-02-26T02:32:40.606Z,17.10
2023-02-26T02:35:33.638Z,15.43
2023-02-26T02:38:10.239Z,20.48
2023-02-26T02:40:42.006Z,32.33
2023-02-26T02:43:22.234Z,29.60
2023-02-26T02:45:58.442Z,18.52
2023-02-26T02:48:44.631Z,16.10
2023-02-26T02:51:34.602Z,18.50
2023-02-26T02:54:08.839Z,18.02
2023-02-26T02:56:44.263Z,13.15
2023-02-26T02:59:26.443Z,13.50
2023-02-26T03:02:01.077Z,19.77
2023-02-26T03:04:29.587Z,14.82
2023-02-26T03:06:58.206Z,24.40
2023-02-26T03:09:26.328Z,18.15
2023-02-26T03:11:54.509Z,18.23
2023-02-26T03:14:23.330Z,23.40
2023-02-26T03:17:03.984Z,18.55
2023-02-26T03:19:47.059Z,14.88
2023-02-26T03:22:47.553Z,13.95
2023-02-26T03:25:48.957Z,17.10
2023-02-26T03:28:32.616Z,19.88
2023-02-26T03:31:12.050Z,11.38
2023-02-26T03:34:00.435Z,10.70
2023-02-26T03:36:36.739Z,12.38
2023-02-26T03:39:44.385Z,8.90
2023-02-26T03:42:19.340Z,8.63
2023-02-26T03:44:59.811Z,9.13
2023-02-26T03:47:29.894Z,8.93
2023-02-26T03:50:05.854Z,11.50
2023-02-26T03:52:42.575Z,9.05
2023-02-26T03:55:29.166Z,10.60
2023-02-26T03:58:09.001Z,10.57
2023-02-26T04:00:56.112Z,15.68
2023-02-26T04:03:32.497Z,15.38
2023-02-26T04:06:02.217Z,12.95
2023-02-26T04:08:32.190Z,10.73
2023-02-26T04:11:10.001Z,8.65
2023-02-26T04:13:39.861Z,10.30
2023-02-26T04:16:08.949Z,9.00
2023-02-26T04:18:39.151Z,6.70
2023-02-26T04:21:13.532Z,10.70
2023-02-26T04:23:43.841Z,9.07
2023-02-26T04:26:14.137Z,7.78
2023-02-26T04:28:45.475Z,9.60
2023-02-26T04:31:14.713Z,9.18
2023-02-26T04:33:44.332Z,7.65
2023-02-26T04:36:13.715Z,12.48
2023-02-26T04:38:43.440Z,13.10
2023-02-26T04:41:12.699Z,8.82
2023-02-26T04:43:42.026Z,10.52
2023-02-26T04:46:24.482Z,11.98
2023-02-26T04:48:54.708Z,13.55
2023-02-26T04:51:24.533Z,9.90
2023-02-26T04:53:54.275Z,9.43
2023-02-26T04:56:23.935Z,8.23
2023-02-26T04:58:53.322Z,9.52
2023-02-26T05:01:28.531Z,7.43
2023-02-26T05:03:58.374Z,4.97
2023-02-26T05:06:30.432Z,6.22
2023-02-26T05:08:59.622Z,6.78
2023-02-26T05:11:28.651Z,12.65
2023-02-26T05:13:57.992Z,15.18
2023-02-26T05:16:27.221Z,15.88
2023-02-26T05:18:56.425Z,8.13
2023-02-26T05:21:26.279Z,7.53
2023-02-26T05:23:56.368Z,9.90
2023-02-26T05:26:26.733Z,9.75
2023-02-26T05:28:55.925Z,7.20
2023-02-26T05:31:24.396Z,9.07
2023-02-26T05:33:53.017Z,8.57
2023-02-26T05:36:21.919Z,10.05
2023-02-26T05:38:50.809Z,12.02
2023-02-26T05:41:19.126Z,13.48
2023-02-26T05:43:47.973Z,8.73
2023-02-26T05:46:17.041Z,9.80
2023-02-26T05:48:46.129Z,11.30
2023-02-26T05:51:15.001Z,12.73
2023-02-26T05:53:43.364Z,12.52
2023-02-26T05:56:12.042Z,11.65
2023-02-26T05:58:40.796Z,26.50
2023-02-26T06:01:09.683Z,19.20
2023-02-26T06:03:40.945Z,11.90
2023-02-26T06:06:09.988Z,13.25
2023-02-26T06:08:41.383Z,10.77
2023-02-26T06:11:09.787Z,9.15
2023-02-26T06:13:38.428Z,8.13
2023-02-26T06:16:06.858Z,15.68
2023-02-26T06:18:35.196Z,17.00
2023-02-26T06:21:03.536Z,15.25
2023-02-26T06:23:32.411Z,10.90
2023-02-26T06:26:00.983Z,14.90
2023-02-26T06:28:29.195Z,9.70
2023-02-26T06:30:57.937Z,10.80
2023-02-26T06:33:26.716Z,12.30
2023-02-26T06:35:56.512Z,12.65
2023-02-26T06:38:24.862Z,12.70
2023-02-26T06:40:55.148Z,12.00
2023-02-26T06:43:23.681Z,11.32
2023-02-26T06:45:52.304Z,14.05
2023-02-26T06:48:20.730Z,11.45
2023-02-26T06:50:49.408Z,11.00
2023-02-26T06:53:17.864Z,11.40
2023-02-26T06:55:46.615Z,11.55
2023-02-26T06:58:14.964Z,11.52
2023-02-26T07:00:43.188Z,14.38
2023-02-26T07:03:17.177Z,10.93
2023-02-26T07:05:46.383Z,12.95
2023-02-26T07:08:14.636Z,14.70
2023-02-26T07:10:43.111Z,14.95
2023-02-26T07:13:11.832Z,11.43
2023-02-26T07:15:40.273Z,12.90
2023-02-26T07:18:08.921Z,14.05
2023-02-26T07:20:37.575Z,12.65
2023-02-26T07:23:06.236Z,15.98
2023-02-26T07:25:35.217Z,9.55
2023-02-26T07:28:04.460Z,11.18
2023-02-26T07:30:33.366Z,17.55
2023-02-26T07:33:02.046Z,43.40
2023-02-26T07:35:30.607Z,36.55
2023-02-26T07:37:59.407Z,27.98
2023-02-26T07:40:27.757Z,26.35
2023-02-26T07:42:56.035Z,14.82
2023-02-26T07:45:24.438Z,12.15
2023-02-26T07:47:52.990Z,14.98
2023-02-26T07:50:21.805Z,22.20
2023-02-26T07:52:50.132Z,13.88
2023-02-26T07:55:18.975Z,11.48
2023-02-26T07:57:47.539Z,13.13
2023-02-26T08:00:16.523Z,14.70
2023-02-26T08:02:45.128Z,14.45
2023-02-26T08:05:13.405Z,16.45
2023-02-26T08:07:42.133Z,12.98
2023-02-26T08:10:11.090Z,10.85
2023-02-26T08:12:39.789Z,9.85
2023-02-26T08:15:08.453Z,10.77
2023-02-26T08:17:36.499Z,8.05
2023-02-26T08:20:05.669Z,11.20
2023-02-26T08:22:34.538Z,11.30
2023-02-26T08:25:02.941Z,14.40
2023-02-26T08:27:31.670Z,11.32
2023-02-26T08:30:00.152Z,13.27
2023-02-26T08:32:28.763Z,10.25
2023-02-26T08:34:57.305Z,11.20
2023-02-26T08:37:25.812Z,9.18
2023-02-26T08:39:54.226Z,9.60
2023-02-26T08:42:22.722Z,10.07
2023-02-26T08:44:51.168Z,11.98
2023-02-26T08:47:28.396Z,7.65
2023-02-26T08:49:57.923Z,12.30
2023-02-26T08:52:26.329Z,12.05
2023-02-26T08:54:54.550Z,10.15
2023-02-26T08:57:23.181Z,16.42
2023-02-26T08:59:51.536Z,12.48
2023-02-26T09:02:19.849Z,19.23
2023-02-26T09:04:48.487Z,13.23
2023-02-26T09:07:17.004Z,10.93
2023-02-26T09:09:45.429Z,11.50
2023-02-26T09:12:14.200Z,12.52
2023-02-26T09:14:42.655Z,14.73
2023-02-26T09:17:11.180Z,15.70
2023-02-26T09:19:40.167Z,15.18
2023-02-26T09:22:08.233Z,19.27
2023-02-26T09:24:37.018Z,14.30
2023-02-26T09:27:05.658Z,15.40
2023-02-26T09:29:34.047Z,12.70
2023-02-26T09:32:02.634Z,12.07
2023-02-26T09:34:30.845Z,12.57
2023-02-26T09:37:01.740Z,15.15
2023-02-26T09:39:29.722Z,15.82
2023-02-26T09:42:11.462Z,16.88
2023-02-26T09:44:40.261Z,14.93
2023-02-26T09:47:13.150Z,14.95
2023-02-26T09:49:59.878Z,13.13
2023-02-26T09:52:38.997Z,16.80
2023-02-26T09:55:14.078Z,14.27
2023-02-26T09:57:46.890Z,19.92
2023-02-26T10:00:31.340Z,18.98
2023-02-26T10:03:02.034Z,20.92
2023-02-26T10:05:41.895Z,21.23
2023-02-26T10:08:17.602Z,19.73
2023-02-26T10:11:01.689Z,18.67
2023-02-26T10:13:56.180Z,21.67
2023-02-26T10:16:32.145Z,16.25
2023-02-26T10:19:13.319Z,15.10
2023-02-26T10:21:45.473Z,15.10
2023-02-26T10:24:24.794Z,17.30
2023-02-26T10:27:03.839Z,14.18
2023-02-26T10:29:57.987Z,19.20
2023-02-26T10:32:42.058Z,19.92
2023-02-26T10:35:15.011Z,24.98
2023-02-26T10:40:54.332Z,23.27
2023-02-26T10:43:39.407Z,25.80
2023-02-26T10:46:33.054Z,18.23
2023-02-26T10:49:26.829Z,30.33
2023-02-26T10:51:55.759Z,28.90
2023-02-26T10:54:35.779Z,28.23
2023-02-26T10:57:04.580Z,26.35
2023-02-26T10:59:33.278Z,25.73
2023-02-26T11:02:01.410Z,24.30
2023-02-26T11:04:29.750Z,24.42
2023-02-26T11:06:59.833Z,23.40
2023-02-26T11:09:29.094Z,20.85
2023-02-26T11:12:05.805Z,25.60
2023-02-26T11:14:34.954Z,25.38
2023-02-26T11:17:30.033Z,24.40
2023-02-26T11:20:20.433Z,33.83
2023-02-26T11:22:50.719Z,25.02
2023-02-26T11:25:24.958Z,26.27
2023-02-26T11:28:04.494Z,23.33
2023-02-26T11:30:37.604Z,20.58
2023-02-26T11:35:36.654Z,9.85
2023-02-26T11:38:05.332Z,24.98
2023-02-26T11:40:40.355Z,29.00
2023-02-26T11:43:13.039Z,20.60
2023-02-26T11:45:44.176Z,25.80
2023-02-26T11:48:17.172Z,20.13
2023-02-26T11:50:48.409Z,21.70
2023-02-26T11:53:18.974Z,22.40
2023-02-26T11:55:53.785Z,19.98
2023-02-26T11:58:24.181Z,23.65
2023-02-26T12:00:53.604Z,24.95
2023-02-26T12:03:29.642Z,25.08
2023-02-26T12:06:01.836Z,22.05
2023-02-26T12:08:40.800Z,44.53
2023-02-26T12:11:17.305Z,42.40
2023-02-26T12:13:51.972Z,84.47
2023-02-26T12:16:28.269Z,73.57
2023-02-26T12:19:03.684Z,63.20
2023-02-26T12:21:51.529Z,70.78
2023-02-26T12:24:45.806Z,65.97
2023-02-26T12:27:42.805Z,55.17
2023-02-26T12:30:45.641Z,52.00
2023-02-26T12:36:53.065Z,31.30
2023-02-26T12:39:21.635Z,37.38
2023-02-26T12:42:03.775Z,33.08
2023-02-26T12:44:54.718Z,32.78
2023-02-26T12:47:26.536Z,39.38
2023-02-26T12:50:09.023Z,44.17
2023-02-26T12:52:59.604Z,55.58
2023-02-26T12:55:41.299Z,60.38
2023-02-26T12:58:38.071Z,51.53
2023-02-26T13:01:33.746Z,55.85
2023-02-26T13:04:06.572Z,93.80
2023-02-26T13:09:32.621Z,50.85
2023-02-26T13:12:21.036Z,51.95
2023-02-26T13:15:01.808Z,52.42
2023-02-26T13:17:56.800Z,57.97
2023-02-26T13:20:26.779Z,67.63
2023-02-26T13:23:02.640Z,48.78
2023-02-26T13:25:49.378Z,48.90
2023-02-26T13:28:40.307Z,41.83
2023-02-26T13:31:25.341Z,42.83
2023-02-26T13:33:56.678Z,44.28
2023-02-26T13:36:26.071Z,40.92
2023-02-26T13:39:05.666Z,37.03
2023-02-26T13:41:45.919Z,33.30
2023-02-26T13:44:30.648Z,29.50
2023-02-26T13:47:33.668Z,29.50
2023-02-26T13:50:35.912Z,39.08
2023-02-26T13:53:30.725Z,42.00
2023-02-26T13:56:34.115Z,41.50
2023-02-26T13:59:18.822Z,38.70
2023-02-26T14:01:55.917Z,40.30
2023-02-26T14:04:27.231Z,39.63
2023-02-26T14:06:59.868Z,45.47
2023-02-26T14:12:19.663Z,36.15
2023-02-26T14:15:03.214Z,36.15
2023-02-26T14:17:42.694Z,41.08
2023-02-26T14:20:25.058Z,54.47
2023-02-26T14:23:10.263Z,56.63
2023-02-26T14:25:40.755Z,62.07
2023-02-26T14:28:28.586Z,64.55
2023-02-26T14:31:12.048Z,38.47
2023-02-26T14:34:05.266Z,41.08
2023-02-26T14:36:49.475Z,26.27
2023-02-26T14:39:29.080Z,30.55
2023-02-26T14:42:05.591Z,26.80
2023-02-26T14:44:38.239Z,25.95
2023-02-26T14:47:07.150Z,23.92
2023-02-26T14:49:37.649Z,24.13
2023-02-26T14:52:44.781Z,19.45
2023-02-26T14:55:23.863Z,19.00
2023-02-26T14:58:29.388Z,23.92
2023-02-26T15:01:35.686Z,22.35
2023-02-26T15:04:39.048Z,20.17
2023-02-26T15:07:38.263Z,22.35
2023-02-26T15:10:21.402Z,21.23
2023-02-26T15:15:56.925Z,21.90
2023-02-26T15:18:43.617Z,18.87
2023-02-26T15:21:34.091Z,10.95
2023-02-26T15:24:04.510Z,12.00
2023-02-26T15:26:36.959Z,10.32
2023-02-26T15:29:07.213Z,21.05
2023-02-26T15:31:38.163Z,19.13
2023-02-26T15:34:07.061Z,20.95
2023-02-26T15:36:35.615Z,14.38
2023-02-26T15:39:09.807Z,13.95
2023-02-26T15:41:43.653Z,13.30
2023-02-26T15:44:16.766Z,14.85
2023-02-26T15:46:49.389Z,15.02
2023-02-26T15:49:30.407Z,17.63
2023-02-26T15:51:58.918Z,29.85
2023-02-26T15:54:33.316Z,34.53
2023-02-26T15:57:03.226Z,38.42
2023-02-26T15:59:32.458Z,31.67
2023-02-26T16:02:03.207Z,38.70
2023-02-26T16:04:31.451Z,41.42
2023-02-26T16:07:00.098Z,39.45
2023-02-26T16:09:35.883Z,36.47
2023-02-26T16:12:10.198Z,33.53
2023-02-26T16:14:40.692Z,34.13
2023-02-26T16:17:12.537Z,29.13
2023-02-26T16:19:46.681Z,29.10
2023-02-26T16:22:28.945Z,28.15
2023-02-26T16:25:00.620Z,27.57
2023-02-26T16:27:29.701Z,18.30
2023-02-26T16:29:59.890Z,21.73
2023-02-26T16:32:30.489Z,23.40
2023-02-26T16:35:01.223Z,22.23
2023-02-26T16:37:39.237Z,23.38
2023-02-26T16:40:18.544Z,15.82
2023-02-26T16:43:03.484Z,23.02
2023-02-26T16:45:38.028Z,27.65
2023-02-26T16:48:16.809Z,29.85
2023-02-26T16:50:45.230Z,26.75
2023-02-26T16:53:20.887Z,25.48
2023-02-26T16:55:56.434Z,11.68
2023-02-26T16:58:24.967Z,17.83
2023-02-26T17:00:59.534Z,20.33
2023-02-26T17:03:28.066Z,16.52
2023-02-26T17:06:06.330Z,16.35
2023-02-26T17:08:50.302Z,17.42
2023-02-26T17:11:33.662Z,19.98
2023-02-26T17:14:19.629Z,18.48
2023-02-26T17:16:48.724Z,27.60
2023-02-26T17:19:18.338Z,23.98
2023-02-26T17:21:58.089Z,22.42
2023-02-26T17:24:45.042Z,24.38
2023-02-26T17:27:18.625Z,26.98
2023-02-26T17:29:47.469Z,26.08
2023-02-26T17:32:21.072Z,30.75
2023-02-26T17:34:50.085Z,24.45
2023-02-26T17:37:18.759Z,30.67
2023-02-26T17:39:47.251Z,25.70
2023-02-26T17:42:23.647Z,19.33
2023-02-26T17:44:52.469Z,18.05
2023-02-26T17:47:22.600Z,17.88
2023-02-26T17:49:51.055Z,14.00
2023-02-26T17:52:20.056Z,15.93
2023-02-26T17:54:48.769Z,14.40
2023-02-26T17:57:19.007Z,16.60
2023-02-26T17:59:47.516Z,9.82
2023-02-26T18:02:26.072Z,14.90
2023-02-26T18:04:54.791Z,13.35
2023-02-26T18:07:23.306Z,14.32
2023-02-26T18:09:51.513Z,12.95
2023-02-26T18:12:22.087Z,15.30
2023-02-26T18:14:50.420Z,19.35
2023-02-26T18:17:29.305Z,16.83
2023-02-26T18:19:58.006Z,14.20
2023-02-26T18:22:28.050Z,18.83
2023-02-26T18:24:56.750Z,19.13
2023-02-26T18:27:26.019Z,19.83
2023-02-26T18:29:54.873Z,17.83
2023-02-26T18:32:24.277Z,16.77
2023-02-26T18:34:53.355Z,15.93
2023-02-26T18:37:23.996Z,12.95
2023-02-26T18:39:52.550Z,13.10
2023-02-26T18:42:22.040Z,12.27
2023-02-26T18:44:50.458Z,16.42
2023-02-26T18:47:19.429Z,17.15
2023-02-26T18:49:48.517Z,17.50
2023-02-26T18:52:16.886Z,14.48
2023-02-26T18:54:45.683Z,15.27
2023-02-26T18:57:14.233Z,11.55
2023-02-26T18:59:42.758Z,10.77
2023-02-26T19:02:12.389Z,5.32
2023-02-26T19:04:41.495Z,14.45
2023-02-26T19:07:10.186Z,13.52
2023-02-26T19:09:38.598Z,9.25
2023-02-26T19:12:07.177Z,7.28
2023-02-26T19:14:35.535Z,13.25
2023-02-26T19:17:04.470Z,13.57
2023-02-26T19:19:32.817Z,13.63
2023-02-26T19:22:01.867Z,11.43
2023-02-26T19:24:30.552Z,14.32
2023-02-26T19:26:59.220Z,10.93
2023-02-26T19:29:27.735Z,18.70
2023-02-26T19:31:56.428Z,14.15
2023-02-26T19:34:28.058Z,11.55
2023-02-26T19:36:57.112Z,12.90
2023-02-26T19:39:25.569Z,18.77
2023-02-26T19:41:54.532Z,12.90
2023-02-26T19:44:22.962Z,12.35
2023-02-26T19:46:51.146Z,11.23
2023-02-26T19:49:19.515Z,9.18
2023-02-26T19:51:47.676Z,7.25
2023-02-26T19:54:16.062Z,9.75
2023-02-26T19:56:44.798Z,7.82
2023-02-26T19:59:13.374Z,7.68
2023-02-26T20:01:42.396Z,8.25
2023-02-26T20:04:11.161Z,7.65
2023-02-26T20:06:39.777Z,8.10
2023-02-26T20:09:08.195Z,8.15
2023-02-26T20:11:36.934Z,6.70
2023-02-26T20:14:05.554Z,7.90
2023-02-26T20:16:33.695Z,8.82
2023-02-26T20:19:02.423Z,8.38
2023-02-26T20:21:30.580Z,9.48
2023-02-26T20:23:58.766Z,7.80
2023-02-26T20:26:26.936Z,8.00
2023-02-26T20:28:55.317Z,8.52
2023-02-26T20:31:24.032Z,5.60
2023-02-26T20:33:53.586Z,6.35
2023-02-26T20:36:22.099Z,6.13
2023-02-26T20:38:50.534Z,7.40
2023-02-26T20:41:19.038Z,6.25
2023-02-26T20:43:47.359Z,8.45
2023-02-26T20:46:15.965Z,4.78
2023-02-26T20:48:45.596Z,4.78
2023-02-26T20:51:15.476Z,5.50
2023-02-26T20:53:44.514Z,6.38
2023-02-26T20:56:12.946Z,8.57
2023-02-26T20:58:41.805Z,7.28
2023-02-26T21:01:10.028Z,5.70
2023-02-26T21:03:38.033Z,6.60
2023-02-26T21:06:06.443Z,7.05
2023-02-26T21:08:35.212Z,6.10
2023-02-26T21:11:03.566Z,7.35
2023-02-26T21:13:31.917Z,6.57
2023-02-26T21:16:01.356Z,6.78
2023-02-26T21:18:29.993Z,4.95
2023-02-26T21:20:58.520Z,4.60
2023-02-26T21:23:27.044Z,5.53
2023-02-26T21:25:55.413Z,5.85
2023-02-26T21:28:23.693Z,5.28
2023-02-26T21:30:52.773Z,7.28
2023-02-26T21:33:21.110Z,4.43
2023-02-26T21:35:52.659Z,5.85
2023-02-26T21:38:21.039Z,7.55
2023-02-26T21:40:49.499Z,6.28
2023-02-26T21:43:17.835Z,5.07
2023-02-26T21:45:46.425Z,6.88
2023-02-26T21:48:14.803Z,6.80
2023-02-26T21:50:42.871Z,7.30
2023-02-26T21:53:11.256Z,7.90
2023-02-26T21:55:39.467Z,6.05
2023-02-26T21:58:07.870Z,6.40
2023-02-26T22:00:35.930Z,6.57
2023-02-26T22:03:04.257Z,9.63
2023-02-26T22:05:32.248Z,6.82
2023-02-26T22:08:00.571Z,9.80
2023-02-26T22:10:31.637Z,8.15
2023-02-26T22:12:59.910Z,6.32
2023-02-26T22:15:27.857Z,6.72
2023-02-26T22:17:55.903Z,7.53
2023-02-26T22:20:24.208Z,5.72
2023-02-26T22:22:52.424Z,11.43
2023-02-26T22:25:21.047Z,6.55
2023-02-26T22:27:49.053Z,6.65
2023-02-26T22:30:17.164Z,7.55
2023-02-26T22:32:45.410Z,7.55
2023-02-26T22:35:14.495Z,7.80
2023-02-26T22:37:42.817Z,8.75
2023-02-26T22:40:13.381Z,7.68
2023-02-26T22:42:42.295Z,4.38
2023-02-26T22:45:12.890Z,7.50
2023-02-26T22:47:41.248Z,10.45
2023-02-26T22:50:10.086Z,9.18
2023-02-26T22:52:38.376Z,8.95
2023-02-26T22:55:07.291Z,8.02
2023-02-26T22:57:36.004Z,4.80
2023-02-26T23:00:10.671Z,7.43
2023-02-26T23:02:41.435Z,9.35
2023-02-26T23:05:10.356Z,7.53
2023-02-26T23:07:39.679Z,9.48
2023-02-26T23:10:09.675Z,9.07
2023-02-26T23:12:39.269Z,5.00
2023-02-26T23:15:08.232Z,10.93
2023-02-26T23:17:36.651Z,11.23
2023-02-26T23:20:05.919Z,9.68
2023-02-26T23:22:34.237Z,10.40
2023-02-26T23:25:02.835Z,7.40
2023-02-26T23:27:30.843Z,8.73
2023-02-26T23:29:59.206Z,10.27
2023-02-26T23:32:27.328Z,10.27
2023-02-26T23:34:55.242Z,10.88
2023-02-26T23:37:24.048Z,11.65
2023-02-26T23:39:53.471Z,11.20
2023-02-26T23:42:22.113Z,11.63
2023-02-26T23:44:50.594Z,12.55
2023-02-26T23:47:18.896Z,11.45
2023-02-26T23:49:46.805Z,13.38
2023-02-26T23:52:15.175Z,15.10
2023-02-26T23:54:43.297Z,13.40
2023-02-26T23:57:11.739Z,12.15
2023-02-26T23:59:39.750Z,14.43
